sensor_id;sensor_type;location;lat;lon;timestamp;temperature;humidity
59973;DHT22;55298;-36.624;-64.282;2023-02-18T00:01:53;16.40;32.80
59973;DHT22;55298;-36.624;-64.282;2023-02-18T00:04:26;16.30;32.60
59973;DHT22;55298;-36.624;-64.282;2023-02-18T00:06:54;16.30;33.50
59973;DHT22;55298;-36.624;-64.282;2023-02-18T00:09:22;16.20;33.40
59973;DHT22;55298;-36.624;-64.282;2023-02-18T00:11:51;16.20;33.80
59973;DHT22;55298;-36.624;-64.282;2023-02-18T00:14:23;16.10;33.40
59973;DHT22;55298;-36.624;-64.282;2023-02-18T00:16:51;16.10;33.80
59973;DHT22;55298;-36.624;-64.282;2023-02-18T00:19:21;16.00;33.60
59973;DHT22;55298;-36.624;-64.282;2023-02-18T00:21:48;16.10;33.80
59973;DHT22;55298;-36.624;-64.282;2023-02-18T00:24:18;15.90;33.70
59973;DHT22;55298;-36.624;-64.282;2023-02-18T00:26:48;15.80;34.70
59973;DHT22;55298;-36.624;-64.282;2023-02-18T00:29:19;15.80;35.10
59973;DHT22;55298;-36.624;-64.282;2023-02-18T00:31:47;15.80;36.50
59973;DHT22;55298;-36.624;-64.282;2023-02-18T00:34:17;15.70;37.60
59973;DHT22;55298;-36.624;-64.282;2023-02-18T00:36:44;15.60;38.10
59973;DHT22;55298;-36.624;-64.282;2023-02-18T00:39:13;15.60;38.20
59973;DHT22;55298;-36.624;-64.282;2023-02-18T00:41:42;15.50;38.40
59973;DHT22;55298;-36.624;-64.282;2023-02-18T00:44:10;15.40;38.80
59973;DHT22;55298;-36.624;-64.282;2023-02-18T00:46:39;15.30;39.10
59973;DHT22;55298;-36.624;-64.282;2023-02-18T00:49:07;15.10;39.50
59973;DHT22;55298;-36.624;-64.282;2023-02-18T00:51:36;14.90;40.10
59973;DHT22;55298;-36.624;-64.282;2023-02-18T00:54:04;14.80;40.70
59973;DHT22;55298;-36.624;-64.282;2023-02-18T00:56:31;14.70;41.40
59973;DHT22;55298;-36.624;-64.282;2023-02-18T00:59:00;14.60;41.70
59973;DHT22;55298;-36.624;-64.282;2023-02-18T01:01:28;14.60;41.90
59973;DHT22;55298;-36.624;-64.282;2023-02-18T01:03:58;14.50;42.00
59973;DHT22;55298;-36.624;-64.282;2023-02-18T01:06:27;14.50;41.90
59973;DHT22;55298;-36.624;-64.282;2023-02-18T01:08:55;14.50;42.20
59973;DHT22;55298;-36.624;-64.282;2023-02-18T01:11:25;14.40;42.70
59973;DHT22;55298;-36.624;-64.282;2023-02-18T01:13:53;14.40;42.60
59973;DHT22;55298;-36.624;-64.282;2023-02-18T01:16:21;14.40;43.00
59973;DHT22;55298;-36.624;-64.282;2023-02-18T01:18:50;14.40;42.90
59973;DHT22;55298;-36.624;-64.282;2023-02-18T01:21:17;14.20;44.00
59973;DHT22;55298;-36.624;-64.282;2023-02-18T01:23:46;14.10;44.40
59973;DHT22;55298;-36.624;-64.282;2023-02-18T01:26:14;13.90;46.30
59973;DHT22;55298;-36.624;-64.282;2023-02-18T01:28:43;13.80;48.10
59973;DHT22;55298;-36.624;-64.282;2023-02-18T01:31:13;13.60;48.60
59973;DHT22;55298;-36.624;-64.282;2023-02-18T01:33:42;13.50;49.30
59973;DHT22;55298;-36.624;-64.282;2023-02-18T01:36:11;13.40;51.90
59973;DHT22;55298;-36.624;-64.282;2023-02-18T01:38:39;13.30;51.80
59973;DHT22;55298;-36.624;-64.282;2023-02-18T01:41:07;13.20;52.70
59973;DHT22;55298;-36.624;-64.282;2023-02-18T01:43:36;13.00;53.10
59973;DHT22;55298;-36.624;-64.282;2023-02-18T01:46:15;13.00;53.20
59973;DHT22;55298;-36.624;-64.282;2023-02-18T01:48:54;12.90;53.60
59973;DHT22;55298;-36.624;-64.282;2023-02-18T01:51:31;12.80;54.80
59973;DHT22;55298;-36.624;-64.282;2023-02-18T01:54:08;12.80;54.40
59973;DHT22;55298;-36.624;-64.282;2023-02-18T01:56:45;12.80;54.10
59973;DHT22;55298;-36.624;-64.282;2023-02-18T01:59:23;12.70;55.20
59973;DHT22;55298;-36.624;-64.282;2023-02-18T02:01:58;12.60;56.10
59973;DHT22;55298;-36.624;-64.282;2023-02-18T02:04:27;12.60;56.40
59973;DHT22;55298;-36.624;-64.282;2023-02-18T02:06:54;12.40;56.90
59973;DHT22;55298;-36.624;-64.282;2023-02-18T02:09:25;12.40;56.90
59973;DHT22;55298;-36.624;-64.282;2023-02-18T02:29:12;12.00;59.00
59973;DHT22;55298;-36.624;-64.282;2023-02-18T02:32:00;11.90;59.80
59973;DHT22;55298;-36.624;-64.282;2023-02-18T02:34:44;11.90;59.40
59973;DHT22;55298;-36.624;-64.282;2023-02-18T02:40:03;11.80;59.80
59973;DHT22;55298;-36.624;-64.282;2023-02-18T02:42:45;11.90;60.00
59973;DHT22;55298;-36.624;-64.282;2023-02-18T02:45:39;11.70;60.50
59973;DHT22;55298;-36.624;-64.282;2023-02-18T02:48:24;11.80;59.60
59973;DHT22;55298;-36.624;-64.282;2023-02-18T02:51:06;11.90;60.10
59973;DHT22;55298;-36.624;-64.282;2023-02-18T02:53:39;11.80;59.80
59973;DHT22;55298;-36.624;-64.282;2023-02-18T02:56:14;11.90;59.20
59973;DHT22;55298;-36.624;-64.282;2023-02-18T02:58:44;12.00;59.20
59973;DHT22;55298;-36.624;-64.282;2023-02-18T03:01:27;11.90;59.40
59973;DHT22;55298;-36.624;-64.282;2023-02-18T03:15:25;11.90;60.80
59973;DHT22;55298;-36.624;-64.282;2023-02-18T03:18:25;11.90;59.80
59973;DHT22;55298;-36.624;-64.282;2023-02-18T03:21:07;11.90;62.00
59973;DHT22;55298;-36.624;-64.282;2023-02-18T03:23:46;11.90;62.70
59973;DHT22;55298;-36.624;-64.282;2023-02-18T03:26:18;11.90;61.90
59973;DHT22;55298;-36.624;-64.282;2023-02-18T03:28:49;11.90;61.90
59973;DHT22;55298;-36.624;-64.282;2023-02-18T03:31:20;12.00;62.10
59973;DHT22;55298;-36.624;-64.282;2023-02-18T03:33:56;11.90;63.00
59973;DHT22;55298;-36.624;-64.282;2023-02-18T03:36:28;11.80;62.20
59973;DHT22;55298;-36.624;-64.282;2023-02-18T03:39:00;11.90;62.50
59973;DHT22;55298;-36.624;-64.282;2023-02-18T03:41:29;11.90;61.90
59973;DHT22;55298;-36.624;-64.282;2023-02-18T03:44:03;11.90;62.30
59973;DHT22;55298;-36.624;-64.282;2023-02-18T03:46:33;11.90;63.60
59973;DHT22;55298;-36.624;-64.282;2023-02-18T03:49:04;11.80;63.50
59973;DHT22;55298;-36.624;-64.282;2023-02-18T03:51:32;11.80;63.60
59973;DHT22;55298;-36.624;-64.282;2023-02-18T03:54:00;11.90;63.00
59973;DHT22;55298;-36.624;-64.282;2023-02-18T03:56:29;11.80;62.70
59973;DHT22;55298;-36.624;-64.282;2023-02-18T03:58:57;11.90;62.30
59973;DHT22;55298;-36.624;-64.282;2023-02-18T04:01:25;11.90;64.10
59973;DHT22;55298;-36.624;-64.282;2023-02-18T04:03:53;11.90;64.50
59973;DHT22;55298;-36.624;-64.282;2023-02-18T04:06:22;11.90;63.80
59973;DHT22;55298;-36.624;-64.282;2023-02-18T04:08:50;11.90;62.90
59973;DHT22;55298;-36.624;-64.282;2023-02-18T04:11:19;11.90;64.30
59973;DHT22;55298;-36.624;-64.282;2023-02-18T04:13:47;11.80;63.20
59973;DHT22;55298;-36.624;-64.282;2023-02-18T04:16:16;11.70;64.20
59973;DHT22;55298;-36.624;-64.282;2023-02-18T04:18:44;11.60;64.30
59973;DHT22;55298;-36.624;-64.282;2023-02-18T04:21:13;11.60;63.80
59973;DHT22;55298;-36.624;-64.282;2023-02-18T04:23:41;11.40;64.80
59973;DHT22;55298;-36.624;-64.282;2023-02-18T04:26:08;11.40;64.50
59973;DHT22;55298;-36.624;-64.282;2023-02-18T04:28:36;11.30;63.90
59973;DHT22;55298;-36.624;-64.282;2023-02-18T04:31:06;11.30;64.10
59973;DHT22;55298;-36.624;-64.282;2023-02-18T04:33:35;11.20;65.80
59973;DHT22;55298;-36.624;-64.282;2023-02-18T04:36:03;11.20;65.40
59973;DHT22;55298;-36.624;-64.282;2023-02-18T04:38:31;11.00;66.40
59973;DHT22;55298;-36.624;-64.282;2023-02-18T04:41:00;11.10;67.00
59973;DHT22;55298;-36.624;-64.282;2023-02-18T04:43:27;11.00;66.20
59973;DHT22;55298;-36.624;-64.282;2023-02-18T04:45:55;11.10;66.10
59973;DHT22;55298;-36.624;-64.282;2023-02-18T04:48:23;11.00;66.70
59973;DHT22;55298;-36.624;-64.282;2023-02-18T04:50:52;11.00;66.20
59973;DHT22;55298;-36.624;-64.282;2023-02-18T04:53:20;11.00;67.00
59973;DHT22;55298;-36.624;-64.282;2023-02-18T04:55:50;11.00;67.70
59973;DHT22;55298;-36.624;-64.282;2023-02-18T04:58:20;10.90;67.50
59973;DHT22;55298;-36.624;-64.282;2023-02-18T05:00:48;10.90;66.20
59973;DHT22;55298;-36.624;-64.282;2023-02-18T05:03:17;10.90;65.40
59973;DHT22;55298;-36.624;-64.282;2023-02-18T05:05:45;10.80;66.20
59973;DHT22;55298;-36.624;-64.282;2023-02-18T05:08:14;10.60;66.80
59973;DHT22;55298;-36.624;-64.282;2023-02-18T05:10:42;10.50;67.30
59973;DHT22;55298;-36.624;-64.282;2023-02-18T05:13:10;10.40;67.70
59973;DHT22;55298;-36.624;-64.282;2023-02-18T05:15:39;10.30;68.00
59973;DHT22;55298;-36.624;-64.282;2023-02-18T05:18:07;10.30;68.10
59973;DHT22;55298;-36.624;-64.282;2023-02-18T05:20:35;10.20;68.60
59973;DHT22;55298;-36.624;-64.282;2023-02-18T05:23:04;10.10;69.70
59973;DHT22;55298;-36.624;-64.282;2023-02-18T05:25:32;10.10;69.60
59973;DHT22;55298;-36.624;-64.282;2023-02-18T05:28:00;10.00;70.20
59973;DHT22;55298;-36.624;-64.282;2023-02-18T05:30:28;10.00;70.10
59973;DHT22;55298;-36.624;-64.282;2023-02-18T05:32:59;10.10;70.00
59973;DHT22;55298;-36.624;-64.282;2023-02-18T05:35:28;10.00;70.70
59973;DHT22;55298;-36.624;-64.282;2023-02-18T05:37:56;10.00;71.20
59973;DHT22;55298;-36.624;-64.282;2023-02-18T05:40:24;10.00;71.60
59973;DHT22;55298;-36.624;-64.282;2023-02-18T05:42:53;10.00;71.30
59973;DHT22;55298;-36.624;-64.282;2023-02-18T05:45:22;10.00;71.40
59973;DHT22;55298;-36.624;-64.282;2023-02-18T05:47:50;10.20;71.90
59973;DHT22;55298;-36.624;-64.282;2023-02-18T05:50:18;10.10;71.50
59973;DHT22;55298;-36.624;-64.282;2023-02-18T05:52:47;10.00;72.10
59973;DHT22;55298;-36.624;-64.282;2023-02-18T05:55:15;10.10;72.60
59973;DHT22;55298;-36.624;-64.282;2023-02-18T05:57:43;10.00;73.80
59973;DHT22;55298;-36.624;-64.282;2023-02-18T06:00:12;10.00;72.80
59973;DHT22;55298;-36.624;-64.282;2023-02-18T06:02:40;10.00;72.60
59973;DHT22;55298;-36.624;-64.282;2023-02-18T06:05:09;10.10;73.00
59973;DHT22;55298;-36.624;-64.282;2023-02-18T06:07:37;9.90;73.10
59973;DHT22;55298;-36.624;-64.282;2023-02-18T06:10:06;9.90;73.30
59973;DHT22;55298;-36.624;-64.282;2023-02-18T06:12:34;9.90;72.90
59973;DHT22;55298;-36.624;-64.282;2023-02-18T06:15:04;9.90;72.20
59973;DHT22;55298;-36.624;-64.282;2023-02-18T06:17:32;9.90;72.80
59973;DHT22;55298;-36.624;-64.282;2023-02-18T06:20:00;9.80;73.20
59973;DHT22;55298;-36.624;-64.282;2023-02-18T06:22:29;9.80;73.50
59973;DHT22;55298;-36.624;-64.282;2023-02-18T06:24:57;9.80;73.80
59973;DHT22;55298;-36.624;-64.282;2023-02-18T06:27:25;9.80;73.40
59973;DHT22;55298;-36.624;-64.282;2023-02-18T06:29:54;9.90;73.40
59973;DHT22;55298;-36.624;-64.282;2023-02-18T06:32:22;9.80;73.10
59973;DHT22;55298;-36.624;-64.282;2023-02-18T06:34:50;9.80;73.20
59973;DHT22;55298;-36.624;-64.282;2023-02-18T06:37:18;9.90;72.00
59973;DHT22;55298;-36.624;-64.282;2023-02-18T06:39:46;9.90;72.60
59973;DHT22;55298;-36.624;-64.282;2023-02-18T06:42:15;10.00;73.20
59973;DHT22;55298;-36.624;-64.282;2023-02-18T06:44:44;10.00;73.40
59973;DHT22;55298;-36.624;-64.282;2023-02-18T06:47:12;10.00;73.80
59973;DHT22;55298;-36.624;-64.282;2023-02-18T06:49:41;10.10;72.90
59973;DHT22;55298;-36.624;-64.282;2023-02-18T06:52:10;10.10;72.30
59973;DHT22;55298;-36.624;-64.282;2023-02-18T06:54:37;10.10;72.50
59973;DHT22;55298;-36.624;-64.282;2023-02-18T06:57:06;10.10;71.60
59973;DHT22;55298;-36.624;-64.282;2023-02-18T06:59:34;10.20;71.30
59973;DHT22;55298;-36.624;-64.282;2023-02-18T07:02:03;10.20;70.50
59973;DHT22;55298;-36.624;-64.282;2023-02-18T07:04:31;10.20;71.00
59973;DHT22;55298;-36.624;-64.282;2023-02-18T07:06:59;10.20;70.80
59973;DHT22;55298;-36.624;-64.282;2023-02-18T07:09:29;10.20;70.50
59973;DHT22;55298;-36.624;-64.282;2023-02-18T07:11:58;10.20;69.20
59973;DHT22;55298;-36.624;-64.282;2023-02-18T07:14:26;10.10;69.90
59973;DHT22;55298;-36.624;-64.282;2023-02-18T07:16:55;10.10;70.00
59973;DHT22;55298;-36.624;-64.282;2023-02-18T07:19:24;10.10;69.60
59973;DHT22;55298;-36.624;-64.282;2023-02-18T07:21:51;10.10;70.20
59973;DHT22;55298;-36.624;-64.282;2023-02-18T07:24:23;10.00;70.00
59973;DHT22;55298;-36.624;-64.282;2023-02-18T07:26:51;10.00;70.70
59973;DHT22;55298;-36.624;-64.282;2023-02-18T07:29:19;10.00;69.50
59973;DHT22;55298;-36.624;-64.282;2023-02-18T07:31:47;10.10;70.10
59973;DHT22;55298;-36.624;-64.282;2023-02-18T07:34:16;10.00;70.10
59973;DHT22;55298;-36.624;-64.282;2023-02-18T07:36:44;10.00;69.80
59973;DHT22;55298;-36.624;-64.282;2023-02-18T07:39:12;10.00;70.20
59973;DHT22;55298;-36.624;-64.282;2023-02-18T07:41:40;10.00;69.70
59973;DHT22;55298;-36.624;-64.282;2023-02-18T07:44:10;10.00;69.80
59973;DHT22;55298;-36.624;-64.282;2023-02-18T07:46:42;10.00;69.40
59973;DHT22;55298;-36.624;-64.282;2023-02-18T07:49:10;9.90;70.70
59973;DHT22;55298;-36.624;-64.282;2023-02-18T07:51:38;9.90;69.30
59973;DHT22;55298;-36.624;-64.282;2023-02-18T07:54:06;10.00;69.40
59973;DHT22;55298;-36.624;-64.282;2023-02-18T07:56:35;9.90;70.00
59973;DHT22;55298;-36.624;-64.282;2023-02-18T07:59:04;9.80;70.30
59973;DHT22;55298;-36.624;-64.282;2023-02-18T08:01:32;9.80;70.40
59973;DHT22;55298;-36.624;-64.282;2023-02-18T08:04:00;9.80;69.90
59973;DHT22;55298;-36.624;-64.282;2023-02-18T08:06:33;9.80;70.10
59973;DHT22;55298;-36.624;-64.282;2023-02-18T08:09:03;9.90;69.90
59973;DHT22;55298;-36.624;-64.282;2023-02-18T08:11:32;9.90;70.10
59973;DHT22;55298;-36.624;-64.282;2023-02-18T08:14:01;9.90;70.00
59973;DHT22;55298;-36.624;-64.282;2023-02-18T08:16:29;9.90;69.90
59973;DHT22;55298;-36.624;-64.282;2023-02-18T08:18:57;9.80;69.60
59973;DHT22;55298;-36.624;-64.282;2023-02-18T08:21:26;10.00;68.70
59973;DHT22;55298;-36.624;-64.282;2023-02-18T08:23:54;10.00;68.20
59973;DHT22;55298;-36.624;-64.282;2023-02-18T08:26:23;10.00;67.20
59973;DHT22;55298;-36.624;-64.282;2023-02-18T08:28:52;10.00;66.70
59973;DHT22;55298;-36.624;-64.282;2023-02-18T08:31:23;10.00;66.70
59973;DHT22;55298;-36.624;-64.282;2023-02-18T08:33:55;10.00;66.50
59973;DHT22;55298;-36.624;-64.282;2023-02-18T08:36:24;10.00;66.10
59973;DHT22;55298;-36.624;-64.282;2023-02-18T08:38:52;10.00;66.40
59973;DHT22;55298;-36.624;-64.282;2023-02-18T08:41:21;9.90;66.50
59973;DHT22;55298;-36.624;-64.282;2023-02-18T08:43:50;10.00;66.80
59973;DHT22;55298;-36.624;-64.282;2023-02-18T08:46:18;9.80;66.90
59973;DHT22;55298;-36.624;-64.282;2023-02-18T08:48:46;9.80;66.60
59973;DHT22;55298;-36.624;-64.282;2023-02-18T08:51:17;9.70;66.20
59973;DHT22;55298;-36.624;-64.282;2023-02-18T08:53:46;9.70;65.90
59973;DHT22;55298;-36.624;-64.282;2023-02-18T08:56:15;9.70;65.80
59973;DHT22;55298;-36.624;-64.282;2023-02-18T08:58:43;9.70;65.80
59973;DHT22;55298;-36.624;-64.282;2023-02-18T09:01:13;9.60;65.50
59973;DHT22;55298;-36.624;-64.282;2023-02-18T09:03:41;9.60;65.00
59973;DHT22;55298;-36.624;-64.282;2023-02-18T09:06:09;9.60;65.00
59973;DHT22;55298;-36.624;-64.282;2023-02-18T09:08:38;9.50;64.90
59973;DHT22;55298;-36.624;-64.282;2023-02-18T09:11:05;9.50;64.90
59973;DHT22;55298;-36.624;-64.282;2023-02-18T09:13:33;9.50;64.70
59973;DHT22;55298;-36.624;-64.282;2023-02-18T09:16:05;9.40;64.40
59973;DHT22;55298;-36.624;-64.282;2023-02-18T09:18:35;9.40;64.30
59973;DHT22;55298;-36.624;-64.282;2023-02-18T09:21:06;9.40;64.40
59973;DHT22;55298;-36.624;-64.282;2023-02-18T09:23:35;9.40;64.50
59973;DHT22;55298;-36.624;-64.282;2023-02-18T09:26:05;9.30;64.70
59973;DHT22;55298;-36.624;-64.282;2023-02-18T09:28:34;9.30;65.10
59973;DHT22;55298;-36.624;-64.282;2023-02-18T09:31:08;9.20;65.10
59973;DHT22;55298;-36.624;-64.282;2023-02-18T09:34:00;9.20;65.40
59973;DHT22;55298;-36.624;-64.282;2023-02-18T09:36:32;9.10;65.20
59973;DHT22;55298;-36.624;-64.282;2023-02-18T09:39:01;9.00;65.70
59973;DHT22;55298;-36.624;-64.282;2023-02-18T09:41:38;8.90;65.80
59973;DHT22;55298;-36.624;-64.282;2023-02-18T09:44:28;8.90;65.50
59973;DHT22;55298;-36.624;-64.282;2023-02-18T09:47:12;8.80;65.50
59973;DHT22;55298;-36.624;-64.282;2023-02-18T09:49:46;8.80;65.00
59973;DHT22;55298;-36.624;-64.282;2023-02-18T09:52:27;8.70;64.50
59973;DHT22;55298;-36.624;-64.282;2023-02-18T09:54:57;8.80;64.60
59973;DHT22;55298;-36.624;-64.282;2023-02-18T09:57:42;8.80;63.20
59973;DHT22;55298;-36.624;-64.282;2023-02-18T10:00:15;8.80;62.30
59973;DHT22;55298;-36.624;-64.282;2023-02-18T10:05:21;8.80;61.10
59973;DHT22;55298;-36.624;-64.282;2023-02-18T10:07:52;8.80;60.90
59973;DHT22;55298;-36.624;-64.282;2023-02-18T10:10:32;8.80;60.40
59973;DHT22;55298;-36.624;-64.282;2023-02-18T10:13:05;8.80;60.00
59973;DHT22;55298;-36.624;-64.282;2023-02-18T10:15:35;8.80;59.90
59973;DHT22;55298;-36.624;-64.282;2023-02-18T10:18:05;8.80;59.80
59973;DHT22;55298;-36.624;-64.282;2023-02-18T10:20:39;8.80;59.60
59973;DHT22;55298;-36.624;-64.282;2023-02-18T10:23:07;8.80;58.80
59973;DHT22;55298;-36.624;-64.282;2023-02-18T10:25:40;8.80;58.70
59973;DHT22;55298;-36.624;-64.282;2023-02-18T10:28:10;8.90;58.50
59973;DHT22;55298;-36.624;-64.282;2023-02-18T10:30:45;9.00;58.20
59973;DHT22;55298;-36.624;-64.282;2023-02-18T10:42:14;9.10;55.30
59973;DHT22;55298;-36.624;-64.282;2023-02-18T10:50:34;9.40;52.70
59973;DHT22;55298;-36.624;-64.282;2023-02-18T10:53:15;9.60;52.40
59973;DHT22;55298;-36.624;-64.282;2023-02-18T10:55:46;9.70;51.60
59973;DHT22;55298;-36.624;-64.282;2023-02-18T10:58:31;9.80;50.80
59973;DHT22;55298;-36.624;-64.282;2023-02-18T11:01:04;10.00;50.00
59973;DHT22;55298;-36.624;-64.282;2023-02-18T11:03:43;10.30;49.30
59973;DHT22;55298;-36.624;-64.282;2023-02-18T11:06:24;11.30;47.40
59973;DHT22;55298;-36.624;-64.282;2023-02-18T11:08:56;12.30;44.40
59973;DHT22;55298;-36.624;-64.282;2023-02-18T11:11:32;13.60;41.80
59973;DHT22;55298;-36.624;-64.282;2023-02-18T11:14:03;14.80;39.10
59973;DHT22;55298;-36.624;-64.282;2023-02-18T11:16:40;15.70;36.10
59973;DHT22;55298;-36.624;-64.282;2023-02-18T11:22:19;17.60;33.40
59973;DHT22;55298;-36.624;-64.282;2023-02-18T11:24:54;18.40;30.40
59973;DHT22;55298;-36.624;-64.282;2023-02-18T11:27:42;18.60;29.30
59973;DHT22;55298;-36.624;-64.282;2023-02-18T11:30:21;18.80;29.00
59973;DHT22;55298;-36.624;-64.282;2023-02-18T11:32:54;19.00;28.00
59973;DHT22;55298;-36.624;-64.282;2023-02-18T11:35:26;19.30;27.70
59973;DHT22;55298;-36.624;-64.282;2023-02-18T11:37:57;19.60;27.90
59973;DHT22;55298;-36.624;-64.282;2023-02-18T11:40:34;19.60;27.10
59973;DHT22;55298;-36.624;-64.282;2023-02-18T11:43:10;19.60;26.90
59973;DHT22;55298;-36.624;-64.282;2023-02-18T11:45:40;20.30;27.30
59973;DHT22;55298;-36.624;-64.282;2023-02-18T11:48:15;20.80;25.80
59973;DHT22;55298;-36.624;-64.282;2023-02-18T11:51:00;21.20;24.80
59973;DHT22;55298;-36.624;-64.282;2023-02-18T11:53:35;21.60;25.00
59973;DHT22;55298;-36.624;-64.282;2023-02-18T11:56:08;22.10;23.80
59973;DHT22;55298;-36.624;-64.282;2023-02-18T11:58:47;22.40;23.10
59973;DHT22;55298;-36.624;-64.282;2023-02-18T12:01:29;22.50;22.40
59973;DHT22;55298;-36.624;-64.282;2023-02-18T12:04:07;22.60;22.70
59973;DHT22;55298;-36.624;-64.282;2023-02-18T12:06:51;22.60;22.70
59973;DHT22;55298;-36.624;-64.282;2023-02-18T12:09:29;23.50;23.00
59973;DHT22;55298;-36.624;-64.282;2023-02-18T12:12:04;23.80;22.00
59973;DHT22;55298;-36.624;-64.282;2023-02-18T12:14:35;24.10;22.30
59973;DHT22;55298;-36.624;-64.282;2023-02-18T12:23:28;25.00;19.90
59973;DHT22;55298;-36.624;-64.282;2023-02-18T12:29:10;24.90;19.00
59973;DHT22;55298;-36.624;-64.282;2023-02-18T12:32:00;25.10;19.20
59973;DHT22;55298;-36.624;-64.282;2023-02-18T12:40:45;25.80;18.90
59973;DHT22;55298;-36.624;-64.282;2023-02-18T12:43:41;26.40;17.80
59973;DHT22;55298;-36.624;-64.282;2023-02-18T12:46:22;26.80;17.30
59973;DHT22;55298;-36.624;-64.282;2023-02-18T12:49:57;27.00;16.80
59973;DHT22;55298;-36.624;-64.282;2023-02-18T12:52:06;27.20;16.80
59973;DHT22;55298;-36.624;-64.282;2023-02-18T12:55:06;27.00;16.40
59973;DHT22;55298;-36.624;-64.282;2023-02-18T12:57:47;26.70;17.30
59973;DHT22;55298;-36.624;-64.282;2023-02-18T13:03:44;26.60;16.20
59973;DHT22;55298;-36.624;-64.282;2023-02-18T13:09:20;27.20;17.80
59973;DHT22;55298;-36.624;-64.282;2023-02-18T13:14:52;27.60;15.00
59973;DHT22;55298;-36.624;-64.282;2023-02-18T13:17:26;27.90;16.10
59973;DHT22;55298;-36.624;-64.282;2023-02-18T13:20:05;28.30;14.70
59973;DHT22;55298;-36.624;-64.282;2023-02-18T13:22:37;28.60;12.90
59973;DHT22;55298;-36.624;-64.282;2023-02-18T13:25:10;28.70;13.10
59973;DHT22;55298;-36.624;-64.282;2023-02-18T13:33:18;29.10;14.00
59973;DHT22;55298;-36.624;-64.282;2023-02-18T13:38:54;28.90;12.00
59973;DHT22;55298;-36.624;-64.282;2023-02-18T13:41:25;28.30;13.00
59973;DHT22;55298;-36.624;-64.282;2023-02-18T13:43:54;28.40;13.80
59973;DHT22;55298;-36.624;-64.282;2023-02-18T13:46:23;28.50;12.40
59973;DHT22;55298;-36.624;-64.282;2023-02-18T13:49:04;28.30;12.10
59973;DHT22;55298;-36.624;-64.282;2023-02-18T13:51:50;28.30;12.20
59973;DHT22;55298;-36.624;-64.282;2023-02-18T13:54:35;28.70;13.00
59973;DHT22;55298;-36.624;-64.282;2023-02-18T13:57:16;29.10;12.00
59973;DHT22;55298;-36.624;-64.282;2023-02-18T13:59:50;29.50;12.70
59973;DHT22;55298;-36.624;-64.282;2023-02-18T14:02:35;29.90;12.20
59973;DHT22;55298;-36.624;-64.282;2023-02-18T14:05:15;29.90;11.70
59973;DHT22;55298;-36.624;-64.282;2023-02-18T14:08:03;30.00;11.10
59973;DHT22;55298;-36.624;-64.282;2023-02-18T14:10:37;30.10;11.80
59973;DHT22;55298;-36.624;-64.282;2023-02-18T14:13:18;30.30;11.20
59973;DHT22;55298;-36.624;-64.282;2023-02-18T14:15:59;29.90;10.70
59973;DHT22;55298;-36.624;-64.282;2023-02-18T14:18:58;29.60;11.60
59973;DHT22;55298;-36.624;-64.282;2023-02-18T14:21:41;29.20;11.10
59973;DHT22;55298;-36.624;-64.282;2023-02-18T14:24:11;29.30;11.90
59973;DHT22;55298;-36.624;-64.282;2023-02-18T14:26:44;29.50;11.50
59973;DHT22;55298;-36.624;-64.282;2023-02-18T14:29:25;29.40;11.30
59973;DHT22;55298;-36.624;-64.282;2023-02-18T14:32:01;29.70;11.60
59973;DHT22;55298;-36.624;-64.282;2023-02-18T14:34:54;30.10;11.80
59973;DHT22;55298;-36.624;-64.282;2023-02-18T14:37:39;30.90;12.40
59973;DHT22;55298;-36.624;-64.282;2023-02-18T14:40:20;30.70;10.90
59973;DHT22;55298;-36.624;-64.282;2023-02-18T14:51:20;30.20;12.30
59973;DHT22;55298;-36.624;-64.282;2023-02-18T14:53:50;30.80;12.00
59973;DHT22;55298;-36.624;-64.282;2023-02-18T14:56:21;31.30;11.30
59973;DHT22;55298;-36.624;-64.282;2023-02-18T14:58:57;31.70;10.50
59973;DHT22;55298;-36.624;-64.282;2023-02-18T15:01:29;32.10;10.40
59973;DHT22;55298;-36.624;-64.282;2023-02-18T15:03:59;31.90;9.80
59973;DHT22;55298;-36.624;-64.282;2023-02-18T15:06:31;30.70;8.90
59973;DHT22;55298;-36.624;-64.282;2023-02-18T15:09:01;30.80;10.50
59973;DHT22;55298;-36.624;-64.282;2023-02-18T15:11:38;31.20;10.20
59973;DHT22;55298;-36.624;-64.282;2023-02-18T15:14:15;31.60;9.80
59973;DHT22;55298;-36.624;-64.282;2023-02-18T15:16:45;31.90;10.30
59973;DHT22;55298;-36.624;-64.282;2023-02-18T15:19:19;32.20;10.00
59973;DHT22;55298;-36.624;-64.282;2023-02-18T15:21:49;32.20;9.30
59973;DHT22;55298;-36.624;-64.282;2023-02-18T15:24:34;32.30;10.30
59973;DHT22;55298;-36.624;-64.282;2023-02-18T15:27:13;32.40;10.50
59973;DHT22;55298;-36.624;-64.282;2023-02-18T15:29:42;32.40;9.40
59973;DHT22;55298;-36.624;-64.282;2023-02-18T15:32:20;32.50;10.20
59973;DHT22;55298;-36.624;-64.282;2023-02-18T15:34:51;32.70;10.90
59973;DHT22;55298;-36.624;-64.282;2023-02-18T15:37:20;32.40;9.40
59973;DHT22;55298;-36.624;-64.282;2023-02-18T15:39:49;32.30;9.00
59973;DHT22;55298;-36.624;-64.282;2023-02-18T15:42:36;32.20;9.70
59973;DHT22;55298;-36.624;-64.282;2023-02-18T15:45:38;31.90;9.00
59973;DHT22;55298;-36.624;-64.282;2023-02-18T15:48:13;31.90;10.20
59973;DHT22;55298;-36.624;-64.282;2023-02-18T15:50:52;31.40;8.10
59973;DHT22;55298;-36.624;-64.282;2023-02-18T15:53:20;31.00;8.20
59973;DHT22;55298;-36.624;-64.282;2023-02-18T15:55:51;30.00;8.90
59973;DHT22;55298;-36.624;-64.282;2023-02-18T15:58:26;29.20;9.40
59973;DHT22;55298;-36.624;-64.282;2023-02-18T16:01:00;28.50;9.90
59973;DHT22;55298;-36.624;-64.282;2023-02-18T16:03:45;28.00;10.40
59973;DHT22;55298;-36.624;-64.282;2023-02-18T16:06:24;27.80;10.90
59973;DHT22;55298;-36.624;-64.282;2023-02-18T16:11:43;27.20;11.70
59973;DHT22;55298;-36.624;-64.282;2023-02-18T16:17:17;26.90;9.80
59973;DHT22;55298;-36.624;-64.282;2023-02-18T16:19:58;26.70;10.50
59973;DHT22;55298;-36.624;-64.282;2023-02-18T16:22:41;26.60;10.10
59973;DHT22;55298;-36.624;-64.282;2023-02-18T16:25:20;26.50;9.20
59973;DHT22;55298;-36.624;-64.282;2023-02-18T16:28:05;26.40;9.60
59973;DHT22;55298;-36.624;-64.282;2023-02-18T16:30:41;26.30;9.50
59973;DHT22;55298;-36.624;-64.282;2023-02-18T16:33:12;26.30;10.20
59973;DHT22;55298;-36.624;-64.282;2023-02-18T16:35:40;26.30;10.00
59973;DHT22;55298;-36.624;-64.282;2023-02-18T16:38:16;26.40;10.90
59973;DHT22;55298;-36.624;-64.282;2023-02-18T16:40:45;26.50;10.40
59973;DHT22;55298;-36.624;-64.282;2023-02-18T16:43:18;26.50;10.10
59973;DHT22;55298;-36.624;-64.282;2023-02-18T16:45:50;26.60;10.80
59973;DHT22;55298;-36.624;-64.282;2023-02-18T16:48:30;26.80;10.60
59973;DHT22;55298;-36.624;-64.282;2023-02-18T16:51:02;26.70;10.50
59973;DHT22;55298;-36.624;-64.282;2023-02-18T16:53:32;26.80;11.00
59973;DHT22;55298;-36.624;-64.282;2023-02-18T16:56:00;26.90;10.90
59973;DHT22;55298;-36.624;-64.282;2023-02-18T16:58:28;26.80;11.00
59973;DHT22;55298;-36.624;-64.282;2023-02-18T17:00:58;26.70;11.10
59973;DHT22;55298;-36.624;-64.282;2023-02-18T17:03:30;26.60;11.10